Bandon, Indiana
Current Conditions -  °F | °C
As of 11:55 AM on Saturday 20 Dec 2014 (Local Time) from KHNB Reporting Station
Overcast Overcast  
Wind Chill: 29°   Ceiling: 1900
Heat Index: 34°   Visibility: 9mi
Dew Point: 25°   Wind: 6mph
Humidity: 70%   Direction: 30°NNE
Pressure: 30.29"   Gusts: NA
Location:  38.1703°N, 86.5482°W
Report Text: KHNB 201755Z AUTO 03005KT 9SM BKN019 OVC065 01/M04 A3029 RMK AO1 10010 21020 57007
Loading
Personal Weather Stations






























Interactive Weather Map New forecast layout! Learn more

10-Day Weather Forecast

Advertisements
Track Severe Weather on mobile